sensor_id;sensor_type;location;lat;lon;timestamp;pressure;altitude;pressure_sealevel;temperature;humidity
11672;BME280;5892;43.412;24.612;2023-03-26T00:00:40;99418.78;;;12.48;100.00
11672;BME280;5892;43.412;24.612;2023-03-26T00:03:10;99430.91;;;12.47;100.00
11672;BME280;5892;43.412;24.612;2023-03-26T00:05:38;99432.84;;;12.46;100.00
11672;BME280;5892;43.412;24.612;2023-03-26T00:08:06;99411.34;;;12.36;100.00
11672;BME280;5892;43.412;24.612;2023-03-26T00:10:34;99435.75;;;12.50;100.00
11672;BME280;5892;43.412;24.612;2023-03-26T00:13:03;99446.28;;;12.60;100.00
11672;BME280;5892;43.412;24.612;2023-03-26T00:15:30;99447.63;;;12.54;100.00
11672;BME280;5892;43.412;24.612;2023-03-26T00:18:01;99363.84;;;11.99;100.00
11672;BME280;5892;43.412;24.612;2023-03-26T00:20:31;99437.88;;;12.56;100.00
11672;BME280;5892;43.412;24.612;2023-03-26T00:22:58;99393.84;;;12.28;100.00
11672;BME280;5892;43.412;24.612;2023-03-26T00:25:27;99424.97;;;12.45;100.00
11672;BME280;5892;43.412;24.612;2023-03-26T00:27:54;99431.94;;;12.42;100.00
11672;BME280;5892;43.412;24.612;2023-03-26T00:30:21;99373.34;;;11.89;100.00
11672;BME280;5892;43.412;24.612;2023-03-26T00:32:48;99422.00;;;12.50;100.00
11672;BME280;5892;43.412;24.612;2023-03-26T00:35:15;99422.66;;;12.47;100.00
11672;BME280;5892;43.412;24.612;2023-03-26T00:37:44;99424.97;;;12.45;100.00
11672;BME280;5892;43.412;24.612;2023-03-26T00:40:11;99412.81;;;12.46;100.00
11672;BME280;5892;43.412;24.612;2023-03-26T00:42:38;99413.53;;;12.43;100.00
11672;BME280;5892;43.412;24.612;2023-03-26T00:45:07;99411.69;;;12.47;100.00
11672;BME280;5892;43.412;24.612;2023-03-26T00:47:34;99395.31;;;12.38;100.00
11672;BME280;5892;43.412;24.612;2023-03-26T00:50:02;99392.81;;;12.33;100.00
11672;BME280;5892;43.412;24.612;2023-03-26T00:52:29;99389.72;;;12.22;100.00
11672;BME280;5892;43.412;24.612;2023-03-26T00:54:58;99403.56;;;12.26;100.00
11672;BME280;5892;43.412;24.612;2023-03-26T00:57:25;99397.50;;;12.32;100.00
11672;BME280;5892;43.412;24.612;2023-03-26T00:59:54;99395.66;;;12.37;100.00
11672;BME280;5892;43.412;24.612;2023-03-26T01:02:21;99395.31;;;12.26;100.00
11672;BME280;5892;43.412;24.612;2023-03-26T01:04:55;99391.44;;;12.27;100.00
11672;BME280;5892;43.412;24.612;2023-03-26T01:07:26;99309.63;;;11.72;100.00
11672;BME280;5892;43.412;24.612;2023-03-26T01:09:55;99380.81;;;12.13;100.00
11672;BME280;5892;43.412;24.612;2023-03-26T01:12:29;99388.56;;;12.11;100.00
11672;BME280;5892;43.412;24.612;2023-03-26T01:14:59;99368.78;;;11.81;100.00
11672;BME280;5892;43.412;24.612;2023-03-26T01:17:28;99386.63;;;12.00;100.00
11672;BME280;5892;43.412;24.612;2023-03-26T01:20:05;99361.19;;;11.78;100.00
11672;BME280;5892;43.412;24.612;2023-03-26T01:22:40;99356.94;;;11.69;100.00
11672;BME280;5892;43.412;24.612;2023-03-26T01:25:09;99389.59;;;11.82;100.00
11672;BME280;5892;43.412;24.612;2023-03-26T01:27:39;99318.00;;;11.42;100.00
11672;BME280;5892;43.412;24.612;2023-03-26T01:30:12;99388.56;;;11.87;100.00
11672;BME280;5892;43.412;24.612;2023-03-26T01:32:50;99404.81;;;11.92;100.00
11672;BME280;5892;43.412;24.612;2023-03-26T01:35:28;99362.91;;;11.71;100.00
11672;BME280;5892;43.412;24.612;2023-03-26T01:38:10;99402.50;;;11.94;100.00
11672;BME280;5892;43.412;24.612;2023-03-26T01:40:44;99404.44;;;11.94;100.00
11672;BME280;5892;43.412;24.612;2023-03-26T01:43:21;99380.97;;;11.72;100.00
11672;BME280;5892;43.412;24.612;2023-03-26T01:45:51;99377.66;;;11.78;100.00
11672;BME280;5892;43.412;24.612;2023-03-26T01:48:19;99391.53;;;11.82;100.00
11672;BME280;5892;43.412;24.612;2023-03-26T01:50:46;99394.84;;;11.87;100.00
11672;BME280;5892;43.412;24.612;2023-03-26T01:53:18;99391.16;;;11.83;100.00
11672;BME280;5892;43.412;24.612;2023-03-26T01:55:53;99399.75;;;11.94;100.00
11672;BME280;5892;43.412;24.612;2023-03-26T01:58:29;99397.13;;;11.85;100.00
11672;BME280;5892;43.412;24.612;2023-03-26T02:01:08;99419.34;;;11.93;100.00
11672;BME280;5892;43.412;24.612;2023-03-26T02:03:45;99394.06;;;11.87;100.00
11672;BME280;5892;43.412;24.612;2023-03-26T02:06:18;99406.81;;;11.71;100.00
11672;BME280;5892;43.412;24.612;2023-03-26T02:08:51;99413.91;;;11.72;100.00
11672;BME280;5892;43.412;24.612;2023-03-26T02:11:21;99412.84;;;11.64;100.00
11672;BME280;5892;43.412;24.612;2023-03-26T02:13:48;99426.06;;;11.83;100.00
11672;BME280;5892;43.412;24.612;2023-03-26T02:16:18;99426.47;;;11.73;100.00
11672;BME280;5892;43.412;24.612;2023-03-26T02:18:46;99407.69;;;11.63;100.00
11672;BME280;5892;43.412;24.612;2023-03-26T02:21:19;99407.47;;;11.68;100.00
11672;BME280;5892;43.412;24.612;2023-03-26T02:23:48;99431.75;;;11.78;100.00
11672;BME280;5892;43.412;24.612;2023-03-26T02:26:23;99420.16;;;11.72;100.00
11672;BME280;5892;43.412;24.612;2023-03-26T02:28:53;99411.16;;;11.72;100.00
11672;BME280;5892;43.412;24.612;2023-03-26T02:31:20;99430.63;;;11.79;100.00
11672;BME280;5892;43.412;24.612;2023-03-26T02:33:51;99426.28;;;11.78;100.00
11672;BME280;5892;43.412;24.612;2023-03-26T02:36:18;99431.31;;;11.76;100.00
11672;BME280;5892;43.412;24.612;2023-03-26T02:38:46;99426.63;;;11.76;100.00
11672;BME280;5892;43.412;24.612;2023-03-26T02:41:13;99283.81;;;10.83;100.00
11672;BME280;5892;43.412;24.612;2023-03-26T02:43:41;99440.34;;;11.76;100.00
11672;BME280;5892;43.412;24.612;2023-03-26T02:46:11;99441.59;;;11.79;100.00
11672;BME280;5892;43.412;24.612;2023-03-26T02:48:38;99443.44;;;11.75;100.00
11672;BME280;5892;43.412;24.612;2023-03-26T02:51:06;99437.59;;;11.76;100.00
11672;BME280;5892;43.412;24.612;2023-03-26T02:53:33;99426.56;;;11.64;100.00
11672;BME280;5892;43.412;24.612;2023-03-26T02:56:02;99447.78;;;11.76;100.00
11672;BME280;5892;43.412;24.612;2023-03-26T02:58:29;99443.44;;;11.75;100.00
11672;BME280;5892;43.412;24.612;2023-03-26T03:00:57;99447.31;;;11.74;100.00
11672;BME280;5892;43.412;24.612;2023-03-26T03:03:27;99451.38;;;11.68;100.00
11672;BME280;5892;43.412;24.612;2023-03-26T03:05:55;99368.94;;;11.19;100.00
11672;BME280;5892;43.412;24.612;2023-03-26T03:08:24;99431.94;;;11.61;100.00
11672;BME280;5892;43.412;24.612;2023-03-26T03:10:57;99454.00;;;11.64;100.00
11672;BME280;5892;43.412;24.612;2023-03-26T03:13:24;99454.00;;;11.64;100.00
11672;BME280;5892;43.412;24.612;2023-03-26T03:15:51;99431.75;;;11.45;100.00
11672;BME280;5892;43.412;24.612;2023-03-26T03:18:19;99388.56;;;11.21;100.00
11672;BME280;5892;43.412;24.612;2023-03-26T03:20:46;99463.84;;;11.65;100.00
11672;BME280;5892;43.412;24.612;2023-03-26T03:23:14;99464.16;;;11.64;100.00
11672;BME280;5892;43.412;24.612;2023-03-26T03:25:43;99477.22;;;11.67;100.00
11672;BME280;5892;43.412;24.612;2023-03-26T03:28:10;99387.13;;;11.03;100.00
11672;BME280;5892;43.412;24.612;2023-03-26T03:30:38;99460.97;;;11.62;100.00
11672;BME280;5892;43.412;24.612;2023-03-26T03:36:26;99485.69;;;11.62;100.00
11672;BME280;5892;43.412;24.612;2023-03-26T03:38:55;99494.09;;;11.57;100.00
11672;BME280;5892;43.412;24.612;2023-03-26T03:41:26;99479.44;;;11.53;100.00
11672;BME280;5892;43.412;24.612;2023-03-26T03:43:53;99505.06;;;11.57;100.00
11672;BME280;5892;43.412;24.612;2023-03-26T03:46:21;99468.88;;;11.42;100.00
11672;BME280;5892;43.412;24.612;2023-03-26T03:48:48;99462.38;;;11.47;100.00
11672;BME280;5892;43.412;24.612;2023-03-26T03:51:15;99470.97;;;11.45;100.00
11672;BME280;5892;43.412;24.612;2023-03-26T03:53:44;99502.78;;;11.59;100.00
11672;BME280;5892;43.412;24.612;2023-03-26T03:56:11;99481.13;;;11.45;100.00
11672;BME280;5892;43.412;24.612;2023-03-26T03:58:39;99493.16;;;11.53;100.00
11672;BME280;5892;43.412;24.612;2023-03-26T04:01:06;99498.53;;;11.49;100.00
11672;BME280;5892;43.412;24.612;2023-03-26T04:03:33;99506.63;;;11.45;100.00
11672;BME280;5892;43.412;24.612;2023-03-26T04:06:03;99472.84;;;11.33;100.00
11672;BME280;5892;43.412;24.612;2023-03-26T04:08:31;99497.41;;;11.50;100.00
11672;BME280;5892;43.412;24.612;2023-03-26T04:11:00;99506.44;;;11.30;100.00
11672;BME280;5892;43.412;24.612;2023-03-26T04:13:28;99501.59;;;11.27;100.00
11672;BME280;5892;43.412;24.612;2023-03-26T04:15:55;99498.94;;;11.18;100.00
11672;BME280;5892;43.412;24.612;2023-03-26T04:18:22;99462.28;;;11.02;100.00
11672;BME280;5892;43.412;24.612;2023-03-26T04:20:50;99479.19;;;10.83;100.00
11672;BME280;5892;43.412;24.612;2023-03-26T04:23:21;99503.50;;;11.14;100.00
11672;BME280;5892;43.412;24.612;2023-03-26T04:25:50;99500.94;;;11.09;100.00
11672;BME280;5892;43.412;24.612;2023-03-26T04:28:26;99516.78;;;11.03;100.00
11672;BME280;5892;43.412;24.612;2023-03-26T04:30:55;99502.56;;;10.81;100.00
11672;BME280;5892;43.412;24.612;2023-03-26T04:33:25;99509.28;;;10.92;100.00
11672;BME280;5892;43.412;24.612;2023-03-26T04:35:53;99515.38;;;10.97;100.00
11672;BME280;5892;43.412;24.612;2023-03-26T04:38:27;99491.50;;;10.69;100.00
11672;BME280;5892;43.412;24.612;2023-03-26T04:40:58;99520.63;;;10.82;100.00
11672;BME280;5892;43.412;24.612;2023-03-26T04:43:28;99504.22;;;10.73;100.00
11672;BME280;5892;43.412;24.612;2023-03-26T04:46:00;99505.25;;;10.60;100.00
11672;BME280;5892;43.412;24.612;2023-03-26T04:48:29;99543.28;;;10.91;100.00
11672;BME280;5892;43.412;24.612;2023-03-26T04:50:56;99549.75;;;11.16;100.00
11672;BME280;5892;43.412;24.612;2023-03-26T04:53:23;99544.41;;;11.19;100.00
11672;BME280;5892;43.412;24.612;2023-03-26T04:55:54;99490.75;;;10.59;100.00
11672;BME280;5892;43.412;24.612;2023-03-26T04:58:23;99558.59;;;11.21;100.00
11672;BME280;5892;43.412;24.612;2023-03-26T05:00:58;99565.09;;;11.37;100.00
11672;BME280;5892;43.412;24.612;2023-03-26T05:03:26;99538.59;;;11.21;100.00
11672;BME280;5892;43.412;24.612;2023-03-26T05:05:56;99420.94;;;10.66;100.00
11672;BME280;5892;43.412;24.612;2023-03-26T05:08:23;99533.97;;;11.13;100.00
11672;BME280;5892;43.412;24.612;2023-03-26T05:10:53;99571.50;;;11.21;100.00
11672;BME280;5892;43.412;24.612;2023-03-26T05:13:20;99515.50;;;11.01;100.00
11672;BME280;5892;43.412;24.612;2023-03-26T05:15:47;99578.56;;;11.72;100.00
11672;BME280;5892;43.412;24.612;2023-03-26T05:18:15;99527.81;;;11.78;100.00
11672;BME280;5892;43.412;24.612;2023-03-26T05:20:44;99591.69;;;12.53;100.00
11672;BME280;5892;43.412;24.612;2023-03-26T05:23:11;99609.94;;;12.82;100.00
11672;BME280;5892;43.412;24.612;2023-03-26T05:25:38;99602.06;;;13.17;100.00
11672;BME280;5892;43.412;24.612;2023-03-26T05:28:05;99593.31;;;13.51;100.00
11672;BME280;5892;43.412;24.612;2023-03-26T05:30:32;99533.69;;;13.55;100.00
11672;BME280;5892;43.412;24.612;2023-03-26T05:32:59;99605.69;;;13.97;100.00
11672;BME280;5892;43.412;24.612;2023-03-26T05:35:29;99585.56;;;13.81;100.00
11672;BME280;5892;43.412;24.612;2023-03-26T05:37:57;99598.72;;;13.87;99.54
11672;BME280;5892;43.412;24.612;2023-03-26T05:40:23;99595.06;;;13.83;99.40
11672;BME280;5892;43.412;24.612;2023-03-26T05:42:51;99606.69;;;14.05;98.15
11672;BME280;5892;43.412;24.612;2023-03-26T05:45:20;99603.59;;;14.06;97.13
11672;BME280;5892;43.412;24.612;2023-03-26T05:47:47;99576.28;;;13.73;98.20
11672;BME280;5892;43.412;24.612;2023-03-26T05:50:15;99490.78;;;12.90;98.95
11672;BME280;5892;43.412;24.612;2023-03-26T05:52:44;99579.78;;;13.46;98.10
11672;BME280;5892;43.412;24.612;2023-03-26T05:55:11;99598.16;;;13.82;97.89
11672;BME280;5892;43.412;24.612;2023-03-26T05:57:38;99589.38;;;13.64;97.18
11672;BME280;5892;43.412;24.612;2023-03-26T06:00:07;99602.03;;;13.93;96.86
11672;BME280;5892;43.412;24.612;2023-03-26T06:02:35;99605.50;;;14.18;94.43
11672;BME280;5892;43.412;24.612;2023-03-26T06:05:03;99602.56;;;14.38;93.51
11672;BME280;5892;43.412;24.612;2023-03-26T06:07:29;99539.88;;;14.08;93.66
11672;BME280;5892;43.412;24.612;2023-03-26T06:09:59;99613.13;;;14.36;92.51
11672;BME280;5892;43.412;24.612;2023-03-26T06:12:34;99610.44;;;14.40;94.13
11672;BME280;5892;43.412;24.612;2023-03-26T06:15:02;99605.75;;;14.56;92.73
11672;BME280;5892;43.412;24.612;2023-03-26T06:17:29;99602.88;;;14.80;91.31
11672;BME280;5892;43.412;24.612;2023-03-26T06:19:57;99609.06;;;14.93;82.94
11672;BME280;5892;43.412;24.612;2023-03-26T06:22:24;99593.34;;;14.94;80.83
11672;BME280;5892;43.412;24.612;2023-03-26T06:24:51;99620.84;;;15.06;79.43
11672;BME280;5892;43.412;24.612;2023-03-26T06:27:21;99604.81;;;14.96;80.44
11672;BME280;5892;43.412;24.612;2023-03-26T06:29:48;99572.97;;;14.82;79.97
11672;BME280;5892;43.412;24.612;2023-03-26T06:32:15;99623.84;;;15.16;79.19
11672;BME280;5892;43.412;24.612;2023-03-26T06:34:44;99612.09;;;15.04;79.00
11672;BME280;5892;43.412;24.612;2023-03-26T06:37:11;99630.69;;;15.38;77.44
11672;BME280;5892;43.412;24.612;2023-03-26T06:39:40;99628.81;;;15.42;77.03
11672;BME280;5892;43.412;24.612;2023-03-26T06:42:07;99593.78;;;15.46;77.58
11672;BME280;5892;43.412;24.612;2023-03-26T06:44:35;99617.66;;;15.89;76.91
11672;BME280;5892;43.412;24.612;2023-03-26T06:47:02;99575.22;;;15.27;76.26
11672;BME280;5892;43.412;24.612;2023-03-26T06:49:29;99617.22;;;15.52;75.34
11672;BME280;5892;43.412;24.612;2023-03-26T06:51:56;99602.78;;;15.59;76.16
11672;BME280;5892;43.412;24.612;2023-03-26T06:54:24;99505.22;;;15.01;70.27
11672;BME280;5892;43.412;24.612;2023-03-26T06:56:51;99611.03;;;16.13;71.07
11672;BME280;5892;43.412;24.612;2023-03-26T06:59:19;99612.59;;;16.33;69.06
11672;BME280;5892;43.412;24.612;2023-03-26T07:01:47;99624.84;;;16.32;68.00
11672;BME280;5892;43.412;24.612;2023-03-26T07:04:14;99620.31;;;16.43;67.44
11672;BME280;5892;43.412;24.612;2023-03-26T07:06:42;99639.31;;;16.45;66.86
11672;BME280;5892;43.412;24.612;2023-03-26T07:09:10;99603.72;;;16.63;68.84
11672;BME280;5892;43.412;24.612;2023-03-26T07:11:37;99619.72;;;16.53;67.53
11672;BME280;5892;43.412;24.612;2023-03-26T07:14:05;99595.91;;;16.68;66.22
11672;BME280;5892;43.412;24.612;2023-03-26T07:16:32;99611.91;;;16.78;65.22
11672;BME280;5892;43.412;24.612;2023-03-26T07:19:01;99569.63;;;16.36;63.15
11672;BME280;5892;43.412;24.612;2023-03-26T07:21:29;99609.44;;;16.54;64.71
11672;BME280;5892;43.412;24.612;2023-03-26T07:24:28;99613.44;;;16.57;64.88
11672;BME280;5892;43.412;24.612;2023-03-26T07:27:02;99616.06;;;16.91;65.59
11672;BME280;5892;43.412;24.612;2023-03-26T07:29:34;99558.00;;;16.69;63.92
11672;BME280;5892;43.412;24.612;2023-03-26T07:32:13;99598.59;;;17.10;62.52
11672;BME280;5892;43.412;24.612;2023-03-26T07:34:52;99613.09;;;17.26;62.73
11672;BME280;5892;43.412;24.612;2023-03-26T07:37:31;99606.28;;;17.20;61.55
11672;BME280;5892;43.412;24.612;2023-03-26T07:40:04;99611.50;;;17.25;61.59
11672;BME280;5892;43.412;24.612;2023-03-26T07:42:47;99585.44;;;17.04;61.64
11672;BME280;5892;43.412;24.612;2023-03-26T07:45:20;99608.34;;;16.78;61.11
11672;BME280;5892;43.412;24.612;2023-03-26T07:47:50;99599.59;;;16.76;61.56
11672;BME280;5892;43.412;24.612;2023-03-26T07:50:21;99621.41;;;16.81;61.45
11672;BME280;5892;43.412;24.612;2023-03-26T07:52:50;99612.91;;;16.89;61.33
11672;BME280;5892;43.412;24.612;2023-03-26T07:55:18;99618.34;;;17.09;61.21
11672;BME280;5892;43.412;24.612;2023-03-26T07:57:54;99632.75;;;16.95;59.57
11672;BME280;5892;43.412;24.612;2023-03-26T08:00:29;99617.00;;;16.99;58.79
11672;BME280;5892;43.412;24.612;2023-03-26T08:03:30;99618.31;;;17.05;58.79
11672;BME280;5892;43.412;24.612;2023-03-26T08:06:13;99604.06;;;17.07;58.53
11672;BME280;5892;43.412;24.612;2023-03-26T08:08:48;99614.41;;;16.87;57.36
11672;BME280;5892;43.412;24.612;2023-03-26T08:11:30;99612.41;;;16.84;58.24
11672;BME280;5892;43.412;24.612;2023-03-26T08:14:07;99591.47;;;16.86;58.34
11672;BME280;5892;43.412;24.612;2023-03-26T08:16:41;99597.13;;;17.16;57.98
11672;BME280;5892;43.412;24.612;2023-03-26T08:19:25;99610.56;;;17.18;57.18
11672;BME280;5892;43.412;24.612;2023-03-26T08:22:01;99608.28;;;17.23;56.17
11672;BME280;5892;43.412;24.612;2023-03-26T08:24:36;99530.88;;;16.78;56.31
11672;BME280;5892;43.412;24.612;2023-03-26T08:27:12;99604.00;;;17.52;57.26
11672;BME280;5892;43.412;24.612;2023-03-26T08:29:49;99574.66;;;17.21;53.16
11672;BME280;5892;43.412;24.612;2023-03-26T08:32:23;99608.41;;;17.30;53.04
11672;BME280;5892;43.412;24.612;2023-03-26T08:34:52;99606.84;;;17.33;54.95
11672;BME280;5892;43.412;24.612;2023-03-26T08:37:23;99601.38;;;17.36;54.91
11672;BME280;5892;43.412;24.612;2023-03-26T08:39:51;99608.56;;;17.41;56.00
11672;BME280;5892;43.412;24.612;2023-03-26T08:42:36;99591.91;;;17.38;55.67
11672;BME280;5892;43.412;24.612;2023-03-26T08:45:41;99618.25;;;17.54;55.75
11672;BME280;5892;43.412;24.612;2023-03-26T08:48:46;99605.84;;;17.71;55.43
11672;BME280;5892;43.412;24.612;2023-03-26T08:51:38;99622.91;;;17.73;54.61
11672;BME280;5892;43.412;24.612;2023-03-26T08:54:33;99615.88;;;17.79;54.60
11672;BME280;5892;43.412;24.612;2023-03-26T09:00:11;99601.91;;;17.72;52.99
11672;BME280;5892;43.412;24.612;2023-03-26T09:03:16;99591.91;;;17.64;52.74
11672;BME280;5892;43.412;24.612;2023-03-26T09:06:28;99584.13;;;17.73;53.63
11672;BME280;5892;43.412;24.612;2023-03-26T09:15:54;99564.66;;;17.69;50.60
11672;BME280;5892;43.412;24.612;2023-03-26T09:18:53;99578.16;;;17.71;49.46
11672;BME280;5892;43.412;24.612;2023-03-26T09:25:01;99562.34;;;17.45;48.95
11672;BME280;5892;43.412;24.612;2023-03-26T09:27:37;99555.97;;;17.41;49.67
11672;BME280;5892;43.412;24.612;2023-03-26T09:30:33;99551.94;;;17.38;52.16
11672;BME280;5892;43.412;24.612;2023-03-26T09:33:27;99555.88;;;17.64;53.19
11672;BME280;5892;43.412;24.612;2023-03-26T09:36:20;99519.63;;;17.76;53.09
11672;BME280;5892;43.412;24.612;2023-03-26T09:38:53;99551.84;;;17.88;51.76
11672;BME280;5892;43.412;24.612;2023-03-26T09:41:35;99527.28;;;17.86;51.03
11672;BME280;5892;43.412;24.612;2023-03-26T09:44:37;99544.63;;;18.16;51.30
11672;BME280;5892;43.412;24.612;2023-03-26T09:47:41;99532.91;;;18.30;49.85
11672;BME280;5892;43.412;24.612;2023-03-26T09:50:23;99535.03;;;18.44;48.65
11672;BME280;5892;43.412;24.612;2023-03-26T09:55:59;99531.53;;;18.10;47.34
11672;BME280;5892;43.412;24.612;2023-03-26T09:59:06;99514.44;;;18.04;48.73
11672;BME280;5892;43.412;24.612;2023-03-26T10:01:40;99506.63;;;18.17;47.17
11672;BME280;5892;43.412;24.612;2023-03-26T10:07:20;99445.94;;;17.68;44.72
11672;BME280;5892;43.412;24.612;2023-03-26T10:09:56;99498.75;;;18.23;43.46
11672;BME280;5892;43.412;24.612;2023-03-26T10:12:32;99485.66;;;18.19;43.19
11672;BME280;5892;43.412;24.612;2023-03-26T10:15:12;99509.22;;;18.36;43.51
11672;BME280;5892;43.412;24.612;2023-03-26T10:17:55;99498.13;;;18.40;41.44
11672;BME280;5892;43.412;24.612;2023-03-26T10:20:32;99486.38;;;18.13;41.95
11672;BME280;5892;43.412;24.612;2023-03-26T10:23:24;99474.44;;;18.05;38.40
11672;BME280;5892;43.412;24.612;2023-03-26T10:26:11;99497.81;;;18.08;37.07
11672;BME280;5892;43.412;24.612;2023-03-26T10:29:02;99501.16;;;18.24;38.65
11672;BME280;5892;43.412;24.612;2023-03-26T10:31:41;99495.72;;;18.35;38.49
11672;BME280;5892;43.412;24.612;2023-03-26T10:34:33;99486.13;;;18.25;37.72
11672;BME280;5892;43.412;24.612;2023-03-26T10:37:07;99459.13;;;18.22;38.44
11672;BME280;5892;43.412;24.612;2023-03-26T10:40:03;99449.63;;;18.19;37.95
11672;BME280;5892;43.412;24.612;2023-03-26T10:43:16;99446.84;;;18.19;39.29
11672;BME280;5892;43.412;24.612;2023-03-26T10:45:59;99459.41;;;18.50;38.82
11672;BME280;5892;43.412;24.612;2023-03-26T10:48:59;99449.25;;;18.69;39.06
11672;BME280;5892;43.412;24.612;2023-03-26T10:51:48;99443.75;;;18.72;38.55
11672;BME280;5892;43.412;24.612;2023-03-26T10:54:41;99445.09;;;18.48;37.79
11672;BME280;5892;43.412;24.612;2023-03-26T10:57:23;99449.09;;;18.51;38.80
11672;BME280;5892;43.412;24.612;2023-03-26T10:59:54;99432.50;;;18.54;37.82
11672;BME280;5892;43.412;24.612;2023-03-26T11:02:26;99430.84;;;18.46;38.92
11672;BME280;5892;43.412;24.612;2023-03-26T11:05:02;99416.34;;;18.67;38.38
11672;BME280;5892;43.412;24.612;2023-03-26T11:07:38;99427.38;;;18.56;37.29
11672;BME280;5892;43.412;24.612;2023-03-26T11:10:12;99432.13;;;18.56;37.56
11672;BME280;5892;43.412;24.612;2023-03-26T11:12:53;99436.50;;;18.57;37.61
11672;BME280;5892;43.412;24.612;2023-03-26T11:15:25;99412.72;;;18.59;36.55
11672;BME280;5892;43.412;24.612;2023-03-26T11:18:02;99421.41;;;18.58;35.91
11672;BME280;5892;43.412;24.612;2023-03-26T11:20:37;99421.50;;;18.69;38.26
11672;BME280;5892;43.412;24.612;2023-03-26T11:23:17;99356.69;;;18.40;38.15
11672;BME280;5892;43.412;24.612;2023-03-26T11:25:59;99386.88;;;18.52;33.83
11672;BME280;5892;43.412;24.612;2023-03-26T11:28:52;99420.56;;;18.50;34.88
11672;BME280;5892;43.412;24.612;2023-03-26T11:31:27;99398.22;;;18.33;37.25
11672;BME280;5892;43.412;24.612;2023-03-26T11:34:02;99411.41;;;18.46;35.81
11672;BME280;5892;43.412;24.612;2023-03-26T11:36:33;99388.75;;;18.37;37.80
11672;BME280;5892;43.412;24.612;2023-03-26T11:39:05;99339.34;;;18.02;34.68
11672;BME280;5892;43.412;24.612;2023-03-26T11:41:38;99427.41;;;18.60;35.54
11672;BME280;5892;43.412;24.612;2023-03-26T11:44:17;99404.06;;;18.68;35.58
11672;BME280;5892;43.412;24.612;2023-03-26T11:46:47;99414.34;;;18.64;34.30
11672;BME280;5892;43.412;24.612;2023-03-26T11:49:17;99409.41;;;18.43;31.97
11672;BME280;5892;43.412;24.612;2023-03-26T11:51:47;99411.84;;;18.52;33.38
11672;BME280;5892;43.412;24.612;2023-03-26T11:54:16;99408.34;;;18.58;31.36
11672;BME280;5892;43.412;24.612;2023-03-26T11:56:49;99388.16;;;18.61;31.48
11672;BME280;5892;43.412;24.612;2023-03-26T11:59:22;99344.53;;;18.04;31.80
11672;BME280;5892;43.412;24.612;2023-03-26T12:01:57;99387.69;;;18.52;33.09
11672;BME280;5892;43.412;24.612;2023-03-26T12:04:26;99386.44;;;18.46;35.13
11672;BME280;5892;43.412;24.612;2023-03-26T12:06:55;99383.28;;;18.48;33.89
11672;BME280;5892;43.412;24.612;2023-03-26T12:09:24;99258.22;;;17.58;32.13
11672;BME280;5892;43.412;24.612;2023-03-26T12:11:55;99383.63;;;18.43;29.89
11672;BME280;5892;43.412;24.612;2023-03-26T12:14:28;99340.69;;;18.23;30.88
11672;BME280;5892;43.412;24.612;2023-03-26T12:16:57;99379.69;;;18.44;32.33
11672;BME280;5892;43.412;24.612;2023-03-26T12:19:24;99388.78;;;18.41;31.68
11672;BME280;5892;43.412;24.612;2023-03-26T12:21:53;99374.91;;;18.41;30.49
11672;BME280;5892;43.412;24.612;2023-03-26T12:24:29;99374.47;;;18.35;30.94
11672;BME280;5892;43.412;24.612;2023-03-26T12:26:57;99383.97;;;18.34;30.83
11672;BME280;5892;43.412;24.612;2023-03-26T12:29:29;99372.78;;;18.24;29.00
11672;BME280;5892;43.412;24.612;2023-03-26T12:32:05;99394.88;;;18.09;28.16
11672;BME280;5892;43.412;24.612;2023-03-26T12:34:34;99368.34;;;18.12;28.24
11672;BME280;5892;43.412;24.612;2023-03-26T12:37:03;99387.91;;;18.33;28.89
11672;BME280;5892;43.412;24.612;2023-03-26T12:39:36;99381.56;;;18.33;31.71
11672;BME280;5892;43.412;24.612;2023-03-26T12:42:05;99397.34;;;18.21;31.96
11672;BME280;5892;43.412;24.612;2023-03-26T12:44:44;99386.28;;;18.25;32.55
11672;BME280;5892;43.412;24.612;2023-03-26T12:47:18;99338.19;;;18.03;33.91
11672;BME280;5892;43.412;24.612;2023-03-26T12:49:47;99359.28;;;18.18;32.23
11672;BME280;5892;43.412;24.612;2023-03-26T12:55:32;99382.25;;;18.15;29.78
11672;BME280;5892;43.412;24.612;2023-03-26T12:58:13;99347.94;;;17.90;30.71
11672;BME280;5892;43.412;24.612;2023-03-26T13:00:54;99377.16;;;18.25;31.66
11672;BME280;5892;43.412;24.612;2023-03-26T13:03:37;99379.22;;;18.31;33.06
11672;BME280;5892;43.412;24.612;2023-03-26T13:06:19;99372.00;;;18.27;33.73
11672;BME280;5892;43.412;24.612;2023-03-26T13:09:10;99355.00;;;18.25;33.24
11672;BME280;5892;43.412;24.612;2023-03-26T13:11:49;99348.66;;;18.28;32.59
11672;BME280;5892;43.412;24.612;2023-03-26T13:14:44;99360.09;;;18.23;31.37
11672;BME280;5892;43.412;24.612;2023-03-26T13:17:22;99372.78;;;18.24;30.95
11672;BME280;5892;43.412;24.612;2023-03-26T13:19:58;99353.66;;;18.08;28.95
11672;BME280;5892;43.412;24.612;2023-03-26T13:22:32;99363.94;;;18.07;28.94
11672;BME280;5892;43.412;24.612;2023-03-26T13:25:12;99332.91;;;17.91;29.40
11672;BME280;5892;43.412;24.612;2023-03-26T13:27:53;99349.00;;;18.23;30.90
11672;BME280;5892;43.412;24.612;2023-03-26T13:30:31;99347.06;;;18.27;32.64
11672;BME280;5892;43.412;24.612;2023-03-26T13:33:24;99240.47;;;17.66;32.39
11672;BME280;5892;43.412;24.612;2023-03-26T13:35:59;99339.88;;;18.15;33.43
11672;BME280;5892;43.412;24.612;2023-03-26T13:38:36;99316.81;;;18.07;33.04
11672;BME280;5892;43.412;24.612;2023-03-26T13:41:13;99276.56;;;17.73;32.32
11672;BME280;5892;43.412;24.612;2023-03-26T13:44:00;99354.63;;;18.30;31.86
11672;BME280;5892;43.412;24.612;2023-03-26T13:46:32;99320.66;;;17.89;32.50
11672;BME280;5892;43.412;24.612;2023-03-26T13:49:07;99342.22;;;18.16;33.98
11672;BME280;5892;43.412;24.612;2023-03-26T13:51:39;99355.34;;;18.19;33.14
11672;BME280;5892;43.412;24.612;2023-03-26T13:54:16;99278.59;;;17.79;33.44